Time;durP1;ratioP1;P1;durP2;ratioP2;P2;SDS_P1;SDS_P2;PMS_P1;PMS_P2;Temp;Humidity;BMP_temperature;BMP_pressure;BME280_temperature;BME280_humidity;BME280_pressure;Samples;Min_cycle;Max_cycle;Signal;HPM_P1;HPM_P2
2021/09/30 09:51:52;;;;;;;;;;;;;;;;;;7370626;19;132776;-12
2021/09/30 09:54:22;;;;;;;;;;;;;;;;;;7363678;19;153274;-13
2021/09/30 09:56:51;;;;;;;;;;;;;;;;;;7363378;19;161994;-13
2021/09/30 09:59:29;;;;;;;;;;;;;;;;;;7364106;19;162682;-14
2021/09/30 10:01:58;;;;;;;;;;;;;;;;;;7364743;19;154011;-13
2021/09/30 10:04:26;;;;;;;;;;;;;;;;;;7364438;19;153491;-15
2021/09/30 10:06:54;;;;;;;;;;;;;;;;;;7362945;19;162190;-14
2021/09/30 10:09:22;;;;;;;;;;;;;;;;;;7364163;19;162677;-13
2021/09/30 10:11:50;;;;;;;;;;;;;;;;;;7364559;19;154052;-13
2021/09/30 10:14:19;;;;;;;;;;;;;;;;;;7366960;19;153350;-14
2021/09/30 10:16:49;;;;;;;;;;;;;;;;;;7364058;19;161951;-15
2021/09/30 10:19:17;;;;;;;;;;;;;;;;;;7363592;19;162445;-13
2021/09/30 10:21:45;;;;;;;;;;;;;;;;;;7364741;19;154121;-13
2021/09/30 10:24:17;;;;;;;;;;;;;;;;;;7364600;19;153421;-14
2021/09/30 10:26:50;;;;;;;;;;;;;;;;;;7364134;19;162219;-13
2021/09/30 10:29:37;;;;;;;;;;;;;;;;;;7362880;19;162447;-15
2021/09/30 10:32:06;;;;;;;;;;;;;;;;;;7363528;19;154059;-15
2021/09/30 10:34:35;;;;;;;;;;;;;;;;;;7364204;19;153529;-14
2021/09/30 10:37:25;;;;;;;;;;;;;;;;;;7363751;19;161999;-14
2021/09/30 10:40:12;;;;;;;;;;;;;;;;;;7362613;19;162571;-14
2021/09/30 10:42:41;;;;;;;;;;;;;;;;;;7363845;19;154209;-14
2021/09/30 10:45:12;;;;;;;;;;;;;;;;;;7363668;19;153572;-18
2021/09/30 10:47:40;;;;;;;;;;;;;;;;;;7367273;19;162351;-13
2021/09/30 10:50:16;;;;;;;;;;;;;;;;;;7361903;19;162430;-13
2021/09/30 10:52:54;;;;;;;;;;;;;;;;;;7333379;19;154699;-15
2021/09/30 10:55:22;;;;;;;;;;;;;;;;;;7334741;19;153461;-15
2021/09/30 10:57:51;;;;;;;;;;;;;;;;;;7332549;19;162472;-14
2021/09/30 11:00:19;;;;;;;;;;;;;;;;;;7332844;19;162636;-15
2021/09/30 11:02:59;;;;;;;;;;;;;;;;;;7334239;19;154158;-14
2021/09/30 11:05:27;;;;;;;;;;;;;;;;;;7334419;19;153224;-16
2021/09/30 11:08:14;;;;;;;;;;;;;;;;;;7333313;19;162016;-14
2021/09/30 11:11:11;;;;;;;;;;;;;;;;;;7335875;19;162514;-15
2021/09/30 11:14:08;;;;;;;;;;;;;;;;;;7335728;19;154140;-15
2021/09/30 11:16:37;;;;;;;;;;;;;;;;;;7332869;19;153527;-14
2021/09/30 11:19:05;;;;;;;;;;;;;;;;;;7335835;19;161952;-16
2021/09/30 11:21:33;;;;;;;;;;;;;;;;;;7331387;19;162453;-14
2021/09/30 11:24:00;;;;;;;;;;;;;;;;;;7334053;19;154109;-15
2021/09/30 11:26:29;;;;;;;;;;;;;;;;;;7334152;19;153129;-16
2021/09/30 11:29:17;;;;;;;;;;;;;;;;;;7333356;19;162255;-14
2021/09/30 11:31:44;;;;;;;;;;;;;;;;;;7333198;19;162519;-14
2021/09/30 11:34:24;;;;;;;;;;;;;;;;;;7333721;19;154108;-15
2021/09/30 11:36:53;;;;;;;;;;;;;;;;;;7333890;19;153382;-14
2021/09/30 11:39:21;;;;;;;;;;;;;;;;;;7333143;19;161993;-16
2021/09/30 11:41:50;;;;;;;;;;;;;;;;;;7330459;19;162266;-14
2021/09/30 11:44:18;;;;;;;;;;;;;;;;;;7333359;19;154157;-12
2021/09/30 11:46:50;;;;;;;;;;;;;;;;;;7333422;19;153326;-13
2021/09/30 11:49:19;;;;;;;;;;;;;;;;;;7332499;19;162276;-13
2021/09/30 11:51:47;;;;;;;;;;;;;;;;;;7332903;19;162455;-13
2021/09/30 11:54:16;;;;;;;;;;;;;;;;;;7333115;19;154087;-12
2021/09/30 11:56:45;;;;;;;;;;;;;;;;;;7331776;19;153939;-12
2021/09/30 11:59:15;;;;;;;;;;;;;;;;;;7335381;19;162044;-15
2021/09/30 12:01:47;;;;;;;;;;;;;;;;;;7330207;19;162555;-14
2021/09/30 12:04:28;;;;;;;;;;;;;;;;;;7330598;19;154199;-12
2021/09/30 12:06:56;;;;;;;;;;;;;;;;;;7331730;19;153918;-14
2021/09/30 12:09:25;;;;;;;;;;;;;;;;;;7332532;19;162127;-14
2021/09/30 12:11:54;;;;;;;;;;;;;;;;;;7332400;19;162582;-13
2021/09/30 12:14:22;;;;;;;;;;;;;;;;;;7332895;19;154043;-14
2021/09/30 12:16:54;;;;;;;;;;;;;;;;;;7332747;19;153357;-14
2021/09/30 12:19:28;;;;;;;;;;;;;;;;;;7331688;19;162219;-15
2021/09/30 12:21:56;;;;;;;;;;;;;;;;;;7330657;19;162739;-15
2021/09/30 12:24:24;;;;;;;;;;;;;;;;;;7332377;19;154086;-15
2021/09/30 12:26:52;;;;;;;;;;;;;;;;;;7333013;19;153307;-14
2021/09/30 12:29:21;;;;;;;;;;;;;;;;;;7331956;19;162183;-13
2021/09/30 12:32:02;;;;;;;;;;;;;;;;;;7332042;19;162469;-16
2021/09/30 12:34:30;;;;;;;;;;;;;;;;;;7332310;19;154342;-14
2021/09/30 12:36:58;;;;;;;;;;;;;;;;;;7333367;19;153371;-14
2021/09/30 12:39:27;;;;;;;;;;;;;;;;;;7330178;19;162090;-14
2021/09/30 12:41:55;;;;;;;;;;;;;;;;;;7329197;19;162524;-15
2021/09/30 12:44:23;;;;;;;;;;;;;;;;;;7331804;19;154280;-15
2021/09/30 12:46:52;;;;;;;;;;;;;;;;;;7331732;19;153392;-14
2021/09/30 12:49:19;;;;;;;;;;;;;;;;;;7330923;19;162062;-16
2021/09/30 12:51:47;;;;;;;;;;;;;;;;;;7331341;19;162941;-16
2021/09/30 12:54:23;;;;;;;;;;;;;;;;;;7331597;19;154108;-16
2021/09/30 12:56:51;;;;;;;;;;;;;;;;;;7330220;19;153416;-17
2021/09/30 12:59:20;;;;;;;;;;;;;;;;;;7330878;19;161869;-16
2021/09/30 13:01:47;;;;;;;;;;;;;;;;;;7328576;19;162918;-16
2021/09/30 13:04:22;;;;;;;;;;;;;;;;;;7331287;19;154113;-14
2021/09/30 13:07:00;;;;;;;;;;;;;;;;;;7323733;19;153947;-15
2021/09/30 13:09:31;;;;;;;;;;;;;;;;;;7334714;19;162247;-15
2021/09/30 13:12:10;;;;;;;;;;;;;;;;;;7330325;19;162436;-14
2021/09/30 13:14:52;;;;;;;;;;;;;;;;;;7330279;19;154090;-15
2021/09/30 13:17:21;;;;;;;;;;;;;;;;;;7330658;19;153200;-15
2021/09/30 13:20:15;;;;;;;;;;;;;;;;;;7329030;19;161861;-14
2021/09/30 13:22:43;;;;;;;;;;;;;;;;;;7329969;19;162221;-15
2021/09/30 13:25:11;;;;;;;;;;;;;;;;;;7330495;19;154120;-16
2021/09/30 13:27:40;;;;;;;;;;;;;;;;;;7330471;19;153397;-14
2021/09/30 13:30:09;;;;;;;;;;;;;;;;;;7326467;19;162009;-14
2021/09/30 13:32:37;;;;;;;;;;;;;;;;;;7330208;19;162579;-13
2021/09/30 13:35:06;;;;;;;;;;;;;;;;;;7330419;19;154057;-13
2021/09/30 13:37:34;;;;;;;;;;;;;;;;;;7330245;19;153597;-15
2021/09/30 13:40:02;;;;;;;;;;;;;;;;;;7329984;19;162058;-14
2021/09/30 13:42:31;;;;;;;;;;;;;;;;;;7327431;19;162621;-14
2021/09/30 13:44:59;;;;;;;;;;;;;;;;;;7330248;19;154105;-13
2021/09/30 13:47:28;;;;;;;;;;;;;;;;;;7329952;19;153354;-15
2021/09/30 13:49:56;;;;;;;;;;;;;;;;;;7328535;19;161682;-13
2021/09/30 13:52:24;;;;;;;;;;;;;;;;;;7329259;19;162439;-15
2021/09/30 13:54:52;;;;;;;;;;;;;;;;;;7329844;19;154089;-14
2021/09/30 13:57:19;;;;;;;;;;;;;;;;;;7329994;19;153506;-15
2021/09/30 13:59:48;;;;;;;;;;;;;;;;;;7329574;19;161797;-14
2021/09/30 14:02:36;;;;;;;;;;;;;;;;;;7326748;19;162599;-13
2021/09/30 14:05:05;;;;;;;;;;;;;;;;;;7329657;19;154063;-13
2021/09/30 14:07:35;;;;;;;;;;;;;;;;;;7329766;19;153345;-16
2021/09/30 14:10:04;;;;;;;;;;;;;;;;;;7329134;19;161805;-14
2021/09/30 14:12:32;;;;;;;;;;;;;;;;;;7328808;19;162834;-15
2021/09/30 14:14:59;;;;;;;;;;;;;;;;;;7329421;19;154315;-15
2021/09/30 14:17:27;;;;;;;;;;;;;;;;;;7328109;19;153410;-15
2021/09/30 14:19:55;;;;;;;;;;;;;;;;;;7328670;19;162178;-14
2021/09/30 14:22:25;;;;;;;;;;;;;;;;;;7325388;19;162544;-13
2021/09/30 14:24:53;;;;;;;;;;;;;;;;;;7327355;19;154123;-13
2021/09/30 14:27:21;;;;;;;;;;;;;;;;;;7333269;19;153316;-13
2021/09/30 14:29:49;;;;;;;;;;;;;;;;;;7335315;19;162040;-13
2021/09/30 14:32:17;;;;;;;;;;;;;;;;;;7334090;19;162553;-13
2021/09/30 14:34:45;;;;;;;;;;;;;;;;;;7335602;19;154113;-14
2021/09/30 14:37:12;;;;;;;;;;;;;;;;;;7335398;19;153532;-15
2021/09/30 14:39:40;;;;;;;;;;;;;;;;;;7335121;19;162016;-15
2021/09/30 14:42:09;;;;;;;;;;;;;;;;;;7333385;19;163260;-17
2021/09/30 14:44:37;;;;;;;;;;;;;;;;;;7335376;19;154171;-12
2021/09/30 14:47:05;;;;;;;;;;;;;;;;;;7333969;19;153650;-14
2021/09/30 14:49:39;;;;;;;;;;;;;;;;;;7334127;19;162045;-14
2021/09/30 14:52:09;;;;;;;;;;;;;;;;;;7334908;19;162512;-14
2021/09/30 14:54:37;;;;;;;;;;;;;;;;;;7334960;19;154349;-14
2021/09/30 14:57:05;;;;;;;;;;;;;;;;;;7334900;19;153647;-14
2021/09/30 14:59:33;;;;;;;;;;;;;;;;;;7333542;19;162020;-12
2021/09/30 15:02:02;;;;;;;;;;;;;;;;;;7333018;19;162208;-14
2021/09/30 15:04:29;;;;;;;;;;;;;;;;;;7334837;19;154122;-13
2021/09/30 15:06:57;;;;;;;;;;;;;;;;;;7334671;19;154516;-14
2021/09/30 15:09:25;;;;;;;;;;;;;;;;;;7334295;19;161970;-13
2021/09/30 15:11:53;;;;;;;;;;;;;;;;;;7334152;19;162340;-14
2021/09/30 15:14:21;;;;;;;;;;;;;;;;;;7333239;19;154152;-14
2021/09/30 15:16:57;;;;;;;;;;;;;;;;;;7334376;19;153565;-14
2021/09/30 15:19:27;;;;;;;;;;;;;;;;;;7333702;19;162221;-13
2021/09/30 15:21:55;;;;;;;;;;;;;;;;;;7332870;19;162795;-13
2021/09/30 15:24:24;;;;;;;;;;;;;;;;;;7334331;19;154590;-14
2021/09/30 15:26:52;;;;;;;;;;;;;;;;;;7333936;19;153326;-14
2021/09/30 15:29:19;;;;;;;;;;;;;;;;;;7333333;19;162203;-13
2021/09/30 15:31:47;;;;;;;;;;;;;;;;;;7333482;19;162740;-13
2021/09/30 15:34:15;;;;;;;;;;;;;;;;;;7333564;19;154370;-14
2021/09/30 15:36:44;;;;;;;;;;;;;;;;;;7333330;19;153623;-16
2021/09/30 15:39:11;;;;;;;;;;;;;;;;;;7332205;19;162181;-15
2021/09/30 15:41:39;;;;;;;;;;;;;;;;;;7332174;19;162443;-16
2021/09/30 15:44:07;;;;;;;;;;;;;;;;;;7333487;19;153885;-15
2021/09/30 15:46:34;;;;;;;;;;;;;;;;;;7332336;19;153298;-13
2021/09/30 15:49:03;;;;;;;;;;;;;;;;;;7333729;19;162124;-14
2021/09/30 15:51:31;;;;;;;;;;;;;;;;;;7332786;19;162865;-13
2021/09/30 15:53:59;;;;;;;;;;;;;;;;;;7335151;19;154262;-14
2021/09/30 15:56:26;;;;;;;;;;;;;;;;;;7334149;19;153431;-15
2021/09/30 15:58:54;;;;;;;;;;;;;;;;;;7335487;19;161980;-16
2021/09/30 16:01:23;;;;;;;;;;;;;;;;;;7335077;19;164834;-15
2021/09/30 16:03:51;;;;;;;;;;;;;;;;;;7335595;19;154285;-15
2021/09/30 16:06:19;;;;;;;;;;;;;;;;;;7336169;19;153378;-14
2021/09/30 16:08:48;;;;;;;;;;;;;;;;;;7335327;19;162060;-14
2021/09/30 16:11:16;;;;;;;;;;;;;;;;;;7335175;19;162241;-14
2021/09/30 16:13:44;;;;;;;;;;;;;;;;;;7335351;19;154811;-15
2021/09/30 16:16:12;;;;;;;;;;;;;;;;;;7334756;19;153525;-15
2021/09/30 16:18:40;;;;;;;;;;;;;;;;;;7334696;19;162208;-15
2021/09/30 16:21:09;;;;;;;;;;;;;;;;;;7334043;19;162749;-17
2021/09/30 16:23:37;;;;;;;;;;;;;;;;;;7332587;19;153943;-16
2021/09/30 16:26:06;;;;;;;;;;;;;;;;;;7334945;19;153422;-16
2021/09/30 16:28:34;;;;;;;;;;;;;;;;;;7335080;19;162371;-15
2021/09/30 16:31:02;;;;;;;;;;;;;;;;;;7334679;19;162453;-16
2021/09/30 16:33:29;;;;;;;;;;;;;;;;;;7332077;19;154339;-15
2021/09/30 16:35:58;;;;;;;;;;;;;;;;;;7332092;19;153444;-15
2021/09/30 16:38:26;;;;;;;;;;;;;;;;;;7331561;19;162229;-15
2021/09/30 16:40:54;;;;;;;;;;;;;;;;;;7331595;19;162582;-16
2021/09/30 16:43:23;;;;;;;;;;;;;;;;;;7328522;19;154299;-14
2021/09/30 16:45:51;;;;;;;;;;;;;;;;;;7332063;19;153397;-14
2021/09/30 16:48:18;;;;;;;;;;;;;;;;;;7332223;19;162164;-14
2021/09/30 16:50:46;;;;;;;;;;;;;;;;;;7328235;19;162606;-15
2021/09/30 16:53:15;;;;;;;;;;;;;;;;;;7331332;19;154156;-15
2021/09/30 16:55:43;;;;;;;;;;;;;;;;;;7331154;19;153526;-15
2021/09/30 16:58:11;;;;;;;;;;;;;;;;;;7331197;19;161999;-14
2021/09/30 17:00:39;;;;;;;;;;;;;;;;;;7330692;19;162438;-17
2021/09/30 17:03:07;;;;;;;;;;;;;;;;;;7329300;19;154114;-16
2021/09/30 17:05:35;;;;;;;;;;;;;;;;;;7331239;19;153342;-14
2021/09/30 17:08:03;;;;;;;;;;;;;;;;;;7331078;19;162283;-14
2021/09/30 17:10:31;;;;;;;;;;;;;;;;;;7331290;19;162408;-14
2021/09/30 17:12:59;;;;;;;;;;;;;;;;;;7330826;19;154430;-16
2021/09/30 17:15:28;;;;;;;;;;;;;;;;;;7329618;19;153508;-15
2021/09/30 17:17:56;;;;;;;;;;;;;;;;;;7330528;19;162222;-15
2021/09/30 17:20:24;;;;;;;;;;;;;;;;;;7330487;19;162546;-17
2021/09/30 17:22:52;;;;;;;;;;;;;;;;;;7328333;19;154354;-17
2021/09/30 17:25:20;;;;;;;;;;;;;;;;;;7329781;19;153619;-16
2021/09/30 17:27:48;;;;;;;;;;;;;;;;;;7330614;19;162137;-14
2021/09/30 17:30:17;;;;;;;;;;;;;;;;;;7333492;19;162436;-14
2021/09/30 17:32:44;;;;;;;;;;;;;;;;;;7333604;19;156771;-14
2021/09/30 17:35:13;;;;;;;;;;;;;;;;;;7333750;19;153340;-15
2021/09/30 17:37:41;;;;;;;;;;;;;;;;;;7333728;19;161773;-16
2021/09/30 17:40:12;;;;;;;;;;;;;;;;;;7332126;19;162534;-16
2021/09/30 17:42:40;;;;;;;;;;;;;;;;;;7331706;19;154155;-16
2021/09/30 17:45:08;;;;;;;;;;;;;;;;;;7330957;19;153579;-16
2021/09/30 17:47:36;;;;;;;;;;;;;;;;;;7328404;19;161939;-17
2021/09/30 17:50:05;;;;;;;;;;;;;;;;;;7332644;19;164026;-17
2021/09/30 17:52:33;;;;;;;;;;;;;;;;;;7333560;19;154108;-14
2021/09/30 17:55:01;;;;;;;;;;;;;;;;;;7332761;19;153337;-14
2021/09/30 17:57:29;;;;;;;;;;;;;;;;;;7332123;19;162179;-15
2021/09/30 17:59:56;;;;;;;;;;;;;;;;;;7330987;19;162328;-14
2021/09/30 18:02:24;;;;;;;;;;;;;;;;;;7335946;19;154372;-15
2021/09/30 18:04:52;;;;;;;;;;;;;;;;;;7340261;19;153663;-15
2021/09/30 18:07:19;;;;;;;;;;;;;;;;;;7338984;19;162231;-14
2021/09/30 18:09:47;;;;;;;;;;;;;;;;;;7338034;19;162392;-14
2021/09/30 18:12:15;;;;;;;;;;;;;;;;;;7339791;19;154120;-14
2021/09/30 18:14:42;;;;;;;;;;;;;;;;;;7335163;19;153786;-14
2021/09/30 18:17:10;;;;;;;;;;;;;;;;;;7335775;19;162079;-15
2021/09/30 18:19:38;;;;;;;;;;;;;;;;;;7336107;19;162517;-16
2021/09/30 18:22:07;;;;;;;;;;;;;;;;;;7339068;19;154277;-16
2021/09/30 18:27:05;;;;;;;;;;;;;;;;;;7335469;19;161981;-16
2021/09/30 18:29:33;;;;;;;;;;;;;;;;;;7332274;19;162388;-15
2021/09/30 18:32:01;;;;;;;;;;;;;;;;;;7332704;19;154213;-14
2021/09/30 18:34:30;;;;;;;;;;;;;;;;;;7333028;19;153709;-15
2021/09/30 18:37:02;;;;;;;;;;;;;;;;;;7334832;19;162133;-15
2021/09/30 18:39:31;;;;;;;;;;;;;;;;;;7338765;19;162438;-16
2021/09/30 18:42:03;;;;;;;;;;;;;;;;;;7339431;19;154399;-15
2021/09/30 18:44:32;;;;;;;;;;;;;;;;;;7333105;19;153644;-17
2021/09/30 18:47:00;;;;;;;;;;;;;;;;;;7334646;19;161957;-13
2021/09/30 18:49:28;;;;;;;;;;;;;;;;;;7337335;19;164281;-14
2021/09/30 18:51:56;;;;;;;;;;;;;;;;;;7333346;19;154129;-13
2021/09/30 18:54:24;;;;;;;;;;;;;;;;;;7335065;19;153358;-15
2021/09/30 18:56:52;;;;;;;;;;;;;;;;;;7336736;19;162175;-15
2021/09/30 18:59:20;;;;;;;;;;;;;;;;;;7334430;19;162849;-16
2021/09/30 19:01:50;;;;;;;;;;;;;;;;;;7334957;19;154113;-14
2021/09/30 19:04:18;;;;;;;;;;;;;;;;;;7333577;19;153493;-15
2021/09/30 19:06:46;;;;;;;;;;;;;;;;;;7337232;19;161974;-14
2021/09/30 19:09:17;;;;;;;;;;;;;;;;;;7338491;19;162813;-13
2021/09/30 19:11:45;;;;;;;;;;;;;;;;;;7335275;19;154143;-15
2021/09/30 19:14:17;;;;;;;;;;;;;;;;;;7335426;19;153359;-14
2021/09/30 19:16:45;;;;;;;;;;;;;;;;;;7336817;19;161967;-15
2021/09/30 19:19:13;;;;;;;;;;;;;;;;;;7337494;19;162465;-13
2021/09/30 19:21:40;;;;;;;;;;;;;;;;;;7336097;19;154306;-14
2021/09/30 19:24:08;;;;;;;;;;;;;;;;;;7335860;19;153487;-14
2021/09/30 19:26:38;;;;;;;;;;;;;;;;;;7335864;19;162172;-16
2021/09/30 19:29:06;;;;;;;;;;;;;;;;;;7336233;19;162569;-14
2021/09/30 19:31:35;;;;;;;;;;;;;;;;;;7337272;19;154068;-15
2021/09/30 19:34:03;;;;;;;;;;;;;;;;;;7335707;19;153629;-14
2021/09/30 19:36:33;;;;;;;;;;;;;;;;;;7336125;19;161727;-14
2021/09/30 19:39:01;;;;;;;;;;;;;;;;;;7336943;19;162702;-14
2021/09/30 19:41:29;;;;;;;;;;;;;;;;;;7335411;19;153883;-15
2021/09/30 19:44:04;;;;;;;;;;;;;;;;;;7334785;19;153792;-15
2021/09/30 19:46:33;;;;;;;;;;;;;;;;;;7336990;19;162204;-14
2021/09/30 19:49:00;;;;;;;;;;;;;;;;;;7328058;19;162238;-16
2021/09/30 19:51:28;;;;;;;;;;;;;;;;;;7331157;19;154432;-14
2021/09/30 19:53:56;;;;;;;;;;;;;;;;;;7333188;19;153681;-15
2021/09/30 19:56:23;;;;;;;;;;;;;;;;;;7332579;19;162137;-14
2021/09/30 19:58:51;;;;;;;;;;;;;;;;;;7331712;19;162500;-14
2021/09/30 20:01:20;;;;;;;;;;;;;;;;;;7333940;19;154097;-15
2021/09/30 20:03:48;;;;;;;;;;;;;;;;;;7333753;19;153463;-13
2021/09/30 20:06:20;;;;;;;;;;;;;;;;;;7335933;19;161616;-13
2021/09/30 20:08:47;;;;;;;;;;;;;;;;;;7335621;19;162466;-15
2021/09/30 20:11:15;;;;;;;;;;;;;;;;;;7335442;19;154079;-16
2021/09/30 20:13:43;;;;;;;;;;;;;;;;;;7332331;19;153377;-14
2021/09/30 20:16:11;;;;;;;;;;;;;;;;;;7330898;19;162046;-16
2021/09/30 20:18:38;;;;;;;;;;;;;;;;;;7332350;19;162434;-14
2021/09/30 20:21:06;;;;;;;;;;;;;;;;;;7332244;19;154087;-16
2021/09/30 20:23:34;;;;;;;;;;;;;;;;;;7329357;19;153248;-14
2021/09/30 20:26:02;;;;;;;;;;;;;;;;;;7334511;19;162114;-12
2021/09/30 20:28:30;;;;;;;;;;;;;;;;;;7331666;19;162498;-16
2021/09/30 20:30:59;;;;;;;;;;;;;;;;;;7332205;19;154235;-15
2021/09/30 20:33:27;;;;;;;;;;;;;;;;;;7333959;19;153015;-16
2021/09/30 20:35:56;;;;;;;;;;;;;;;;;;7334773;19;161881;-15
2021/09/30 20:38:23;;;;;;;;;;;;;;;;;;7334208;19;162460;-13
2021/09/30 20:40:51;;;;;;;;;;;;;;;;;;7334277;19;154149;-14
2021/09/30 20:43:21;;;;;;;;;;;;;;;;;;7332794;19;153520;-13
2021/09/30 20:45:49;;;;;;;;;;;;;;;;;;7334252;19;162320;-12
2021/09/30 20:48:16;;;;;;;;;;;;;;;;;;7334018;19;162485;-13
2021/09/30 20:50:45;;;;;;;;;;;;;;;;;;7332634;19;154160;-13
2021/09/30 20:53:13;;;;;;;;;;;;;;;;;;7334078;19;153292;-14
2021/09/30 20:55:40;;;;;;;;;;;;;;;;;;7334441;19;162034;-14
2021/09/30 20:58:08;;;;;;;;;;;;;;;;;;7333495;19;162395;-13
2021/09/30 21:00:35;;;;;;;;;;;;;;;;;;7334488;19;154296;-13
2021/09/30 21:03:03;;;;;;;;;;;;;;;;;;7333381;19;153512;-14
2021/09/30 21:05:31;;;;;;;;;;;;;;;;;;7331090;19;161874;-13
2021/09/30 21:07:58;;;;;;;;;;;;;;;;;;7333653;19;163058;-13
2021/09/30 21:10:26;;;;;;;;;;;;;;;;;;7334420;19;154089;-12
2021/09/30 21:12:54;;;;;;;;;;;;;;;;;;7334106;19;153434;-12
2021/09/30 21:15:22;;;;;;;;;;;;;;;;;;7333380;19;161760;-12
2021/09/30 21:17:49;;;;;;;;;;;;;;;;;;7332630;19;162138;-13
2021/09/30 21:20:17;;;;;;;;;;;;;;;;;;7334075;19;153895;-12
2021/09/30 21:22:45;;;;;;;;;;;;;;;;;;7334057;19;153318;-14
2021/09/30 21:25:13;;;;;;;;;;;;;;;;;;7330667;19;161946;-13
2021/09/30 21:27:40;;;;;;;;;;;;;;;;;;7332666;19;162610;-12
2021/09/30 21:30:08;;;;;;;;;;;;;;;;;;7333046;19;154282;-13
2021/09/30 21:32:38;;;;;;;;;;;;;;;;;;7333378;19;153772;-15
2021/09/30 21:35:10;;;;;;;;;;;;;;;;;;7333545;19;161946;-14
2021/09/30 21:37:38;;;;;;;;;;;;;;;;;;7332981;19;162733;-14
2021/09/30 21:40:07;;;;;;;;;;;;;;;;;;7333817;19;154193;-14
2021/09/30 21:42:35;;;;;;;;;;;;;;;;;;7332637;19;153276;-13
2021/09/30 21:45:03;;;;;;;;;;;;;;;;;;7330706;19;162019;-15
2021/09/30 21:47:31;;;;;;;;;;;;;;;;;;7332710;19;162522;-14
2021/09/30 21:49:59;;;;;;;;;;;;;;;;;;7332591;19;154131;-15
2021/09/30 21:52:27;;;;;;;;;;;;;;;;;;7331287;19;153551;-13
2021/09/30 21:54:55;;;;;;;;;;;;;;;;;;7332350;19;162003;-14
2021/09/30 21:57:23;;;;;;;;;;;;;;;;;;7332339;19;163096;-14
2021/09/30 21:59:50;;;;;;;;;;;;;;;;;;7332245;19;154075;-15
2021/09/30 22:02:18;;;;;;;;;;;;;;;;;;7332378;19;153630;-15
2021/09/30 22:04:46;;;;;;;;;;;;;;;;;;7328491;19;162135;-13
2021/09/30 22:08:03;;;;;;;;;;;;;;;;;;7346965;19;132710;-14
2021/09/30 22:12:46;;;;;;;;;;;;;;;;;;7249212;19;133985;-12
2021/09/30 22:15:14;;;;;;;;;;;;;;;;;;7363999;19;153769;-18
2021/09/30 22:17:42;;;;;;;54.33;20.52;;;;;;;;;;7184209;19;162099;-13
2021/09/30 22:20:10;;;;;;;60.63;21.88;;;;;;;;;;7312429;19;162622;-14
2021/09/30 22:22:37;;;;;;;53.53;21.55;;;;;;;;;;7364717;19;154070;-13
2021/09/30 22:25:06;;;;;;;55.58;21.05;;;;;;;;;;7364627;19;153800;-13
2021/09/30 22:27:34;;;;;;;55.33;20.73;;;;;;;;;;7364074;19;161931;-13
2021/09/30 22:30:04;;;;;;;50.22;19.73;;;;;;;;;;7208638;19;162536;-12
2021/09/30 22:32:32;;;;;;;49.42;20.30;;;;;;;;;;7339721;19;154427;-13
2021/09/30 22:35:00;;;;;;;50.65;19.25;;;;;;;;;;7363044;19;153630;-13
2021/09/30 22:37:28;;;;;;;53.47;21.30;;;;;;;;;;7363816;19;161972;-13
2021/09/30 22:39:55;;;;;;;47.25;18.33;;;;;;;;;;7363532;19;162491;-13
2021/09/30 22:42:23;;;;;;;47.03;19.77;;;;;;;;;;7363959;19;154217;-13
2021/09/30 22:44:51;;;;;;;46.22;19.08;;;;;;;;;;7363909;19;153659;-13
2021/09/30 22:47:19;;;;;;;50.90;20.60;;;;;;;;;;7296460;19;162119;-14
2021/09/30 22:49:47;;;;;;;46.22;18.95;;;;;;;;;;7363517;19;162671;-13
2021/09/30 22:52:14;;;;;;;53.13;19.45;;;;;;;;;;7362185;19;153991;-14
2021/09/30 22:54:42;;;;;;;49.33;19.50;;;;;;;;;;7363945;19;153729;-13
2021/09/30 22:57:13;;;;;;;47.65;18.80;;;;;;;;;;7363224;19;161975;-14
2021/09/30 22:59:41;;;;;;;42.22;17.90;;;;;;;;;;7363091;19;162450;-14
2021/09/30 23:02:09;;;;;;;43.95;19.42;;;;;;;;;;7363386;19;153937;-15
2021/09/30 23:04:37;;;;;;;49.05;20.17;;;;;;;;;;7363584;19;153688;-14
2021/09/30 23:07:05;;;;;;;47.15;18.90;;;;;;;;;;7363015;19;161912;-13
2021/09/30 23:09:33;;;;;;;47.80;20.55;;;;;;;;;;7362757;19;162245;-14
2021/09/30 23:12:01;;;;;;;49.45;19.42;;;;;;;;;;7361151;19;154119;-14
2021/09/30 23:14:29;;;;;;;42.53;19.27;;;;;;;;;;7363427;19;153601;-14
2021/09/30 23:16:58;;;;;;;42.38;18.42;;;;;;;;;;7362891;19;161580;-14
2021/09/30 23:19:27;;;;;;;44.45;18.17;;;;;;;;;;7358329;19;162489;-14
2021/09/30 23:21:58;;;;;;;48.28;17.42;;;;;;;;;;7356487;19;153998;-13
2021/09/30 23:24:31;;;;;;;44.47;18.95;;;;;;;;;;7329266;19;153889;-12
